Terminal Aerodrome Forecast
Issued by NWS

Home | Current Version | Previous Version | Text Only | Print | Product List | Glossary On
Versions: 1 2 3 4 5 6 7 8 9 10 11 12 13 14
000
FTUS45 KBOI 201524 AAA
TAFBKE
TAF AMD
KBKE 201524Z 2015/2112 11011KT P6SM -SHRA SCT015 OVC035
     FM210100 VRB06KT P6SM VCFG SCT015 BKN035=

USA.gov is the U.S. government's official web portal to all federal, state and local government web resources and services.